sensor_id;sensor_type;location;lat;lon;timestamp;P1;durP1;ratioP1;P2;durP2;ratioP2
16727;SDS011;8482;54.396;18.590;2022-09-06T00:00:39;2.60;;;1.27;;
16727;SDS011;8482;54.396;18.590;2022-09-06T00:03:06;3.13;;;1.25;;
16727;SDS011;8482;54.396;18.590;2022-09-06T00:05:32;2.08;;;1.17;;
16727;SDS011;8482;54.396;18.590;2022-09-06T00:08:00;2.55;;;1.30;;
16727;SDS011;8482;54.396;18.590;2022-09-06T00:10:28;1.85;;;1.15;;
16727;SDS011;8482;54.396;18.590;2022-09-06T00:12:58;2.10;;;1.23;;
16727;SDS011;8482;54.396;18.590;2022-09-06T00:15:30;2.45;;;1.40;;
16727;SDS011;8482;54.396;18.590;2022-09-06T00:17:57;2.97;;;1.27;;
16727;SDS011;8482;54.396;18.590;2022-09-06T00:20:26;2.65;;;1.38;;
16727;SDS011;8482;54.396;18.590;2022-09-06T00:22:56;2.67;;;1.33;;
16727;SDS011;8482;54.396;18.590;2022-09-06T00:25:28;2.60;;;1.40;;
16727;SDS011;8482;54.396;18.590;2022-09-06T00:27:58;3.00;;;1.70;;
16727;SDS011;8482;54.396;18.590;2022-09-06T00:30:29;4.10;;;1.80;;
16727;SDS011;8482;54.396;18.590;2022-09-06T00:32:57;2.65;;;1.20;;
16727;SDS011;8482;54.396;18.590;2022-09-06T00:35:23;2.30;;;1.27;;
16727;SDS011;8482;54.396;18.590;2022-09-06T00:37:51;2.83;;;1.50;;
16727;SDS011;8482;54.396;18.590;2022-09-06T00:40:25;2.42;;;1.20;;
16727;SDS011;8482;54.396;18.590;2022-09-06T00:42:53;2.70;;;1.40;;
16727;SDS011;8482;54.396;18.590;2022-09-06T00:45:21;2.58;;;1.40;;
16727;SDS011;8482;54.396;18.590;2022-09-06T00:47:49;2.72;;;1.27;;
16727;SDS011;8482;54.396;18.590;2022-09-06T00:50:16;3.00;;;1.50;;
16727;SDS011;8482;54.396;18.590;2022-09-06T00:52:44;3.90;;;1.60;;
16727;SDS011;8482;54.396;18.590;2022-09-06T00:55:13;2.92;;;1.40;;
16727;SDS011;8482;54.396;18.590;2022-09-06T00:57:40;2.65;;;1.48;;
16727;SDS011;8482;54.396;18.590;2022-09-06T01:00:06;2.88;;;1.58;;
16727;SDS011;8482;54.396;18.590;2022-09-06T01:02:33;5.00;;;1.77;;
16727;SDS011;8482;54.396;18.590;2022-09-06T01:05:00;2.78;;;1.42;;
16727;SDS011;8482;54.396;18.590;2022-09-06T01:12:54;2.20;;;1.30;;
16727;SDS011;8482;54.396;18.590;2022-09-06T01:15:52;2.97;;;1.40;;
16727;SDS011;8482;54.396;18.590;2022-09-06T01:30:04;3.22;;;1.58;;
16727;SDS011;8482;54.396;18.590;2022-09-06T01:32:48;3.00;;;1.52;;
16727;SDS011;8482;54.396;18.590;2022-09-06T01:38:07;2.75;;;1.45;;
16727;SDS011;8482;54.396;18.590;2022-09-06T01:40:34;2.85;;;1.70;;
16727;SDS011;8482;54.396;18.590;2022-09-06T01:43:00;2.90;;;1.63;;
16727;SDS011;8482;54.396;18.590;2022-09-06T01:46:14;4.03;;;1.63;;
16727;SDS011;8482;54.396;18.590;2022-09-06T01:48:54;3.20;;;1.40;;
16727;SDS011;8482;54.396;18.590;2022-09-06T01:57:34;3.47;;;1.50;;
16727;SDS011;8482;54.396;18.590;2022-09-06T02:00:27;3.60;;;1.45;;
16727;SDS011;8482;54.396;18.590;2022-09-06T02:06:30;2.58;;;1.55;;
16727;SDS011;8482;54.396;18.590;2022-09-06T02:09:05;3.28;;;1.60;;
16727;SDS011;8482;54.396;18.590;2022-09-06T02:11:47;2.78;;;1.48;;
16727;SDS011;8482;54.396;18.590;2022-09-06T02:14:19;3.95;;;1.50;;
16727;SDS011;8482;54.396;18.590;2022-09-06T02:16:55;2.70;;;1.50;;
16727;SDS011;8482;54.396;18.590;2022-09-06T02:19:26;3.38;;;1.50;;
16727;SDS011;8482;54.396;18.590;2022-09-06T02:22:04;3.05;;;1.95;;
16727;SDS011;8482;54.396;18.590;2022-09-06T02:24:34;4.10;;;1.50;;
16727;SDS011;8482;54.396;18.590;2022-09-06T02:27:04;3.13;;;1.60;;
16727;SDS011;8482;54.396;18.590;2022-09-06T02:29:31;3.08;;;1.75;;
16727;SDS011;8482;54.396;18.590;2022-09-06T02:34:37;3.58;;;2.10;;
16727;SDS011;8482;54.396;18.590;2022-09-06T02:37:07;3.42;;;1.67;;
16727;SDS011;8482;54.396;18.590;2022-09-06T02:39:35;2.63;;;1.55;;
16727;SDS011;8482;54.396;18.590;2022-09-06T02:42:02;1.73;;;1.30;;
16727;SDS011;8482;54.396;18.590;2022-09-06T02:44:29;3.72;;;1.80;;
16727;SDS011;8482;54.396;18.590;2022-09-06T02:46:56;3.70;;;1.58;;
16727;SDS011;8482;54.396;18.590;2022-09-06T02:49:22;4.57;;;1.67;;
16727;SDS011;8482;54.396;18.590;2022-09-06T02:51:48;3.90;;;1.80;;
16727;SDS011;8482;54.396;18.590;2022-09-06T02:54:14;2.95;;;1.38;;
16727;SDS011;8482;54.396;18.590;2022-09-06T02:56:40;3.05;;;1.50;;
16727;SDS011;8482;54.396;18.590;2022-09-06T02:59:06;2.88;;;1.50;;
16727;SDS011;8482;54.396;18.590;2022-09-06T03:01:32;2.70;;;1.27;;
16727;SDS011;8482;54.396;18.590;2022-09-06T03:03:58;2.38;;;1.40;;
16727;SDS011;8482;54.396;18.590;2022-09-06T03:06:24;2.28;;;1.25;;
16727;SDS011;8482;54.396;18.590;2022-09-06T03:08:50;1.80;;;1.20;;
16727;SDS011;8482;54.396;18.590;2022-09-06T03:11:16;2.70;;;1.77;;
16727;SDS011;8482;54.396;18.590;2022-09-06T03:13:42;2.00;;;1.10;;
16727;SDS011;8482;54.396;18.590;2022-09-06T03:16:07;1.63;;;1.08;;
16727;SDS011;8482;54.396;18.590;2022-09-06T03:18:33;2.65;;;1.55;;
16727;SDS011;8482;54.396;18.590;2022-09-06T03:20:59;2.10;;;1.17;;
16727;SDS011;8482;54.396;18.590;2022-09-06T03:23:27;3.20;;;1.45;;
16727;SDS011;8482;54.396;18.590;2022-09-06T03:25:54;2.17;;;1.27;;
16727;SDS011;8482;54.396;18.590;2022-09-06T03:28:20;2.28;;;1.23;;
16727;SDS011;8482;54.396;18.590;2022-09-06T03:30:48;2.95;;;1.20;;
16727;SDS011;8482;54.396;18.590;2022-09-06T03:33:15;1.63;;;1.15;;
16727;SDS011;8482;54.396;18.590;2022-09-06T03:35:46;2.03;;;1.40;;
16727;SDS011;8482;54.396;18.590;2022-09-06T03:38:21;2.03;;;1.05;;
16727;SDS011;8482;54.396;18.590;2022-09-06T03:40:49;1.90;;;1.20;;
16727;SDS011;8482;54.396;18.590;2022-09-06T03:43:16;1.95;;;1.10;;
16727;SDS011;8482;54.396;18.590;2022-09-06T03:45:47;2.92;;;1.23;;
16727;SDS011;8482;54.396;18.590;2022-09-06T03:48:16;2.85;;;1.50;;
16727;SDS011;8482;54.396;18.590;2022-09-06T03:50:44;2.40;;;1.20;;
16727;SDS011;8482;54.396;18.590;2022-09-06T03:53:12;2.45;;;1.30;;
16727;SDS011;8482;54.396;18.590;2022-09-06T03:55:39;2.00;;;1.25;;
16727;SDS011;8482;54.396;18.590;2022-09-06T03:58:09;2.35;;;1.55;;
16727;SDS011;8482;54.396;18.590;2022-09-06T04:00:34;3.03;;;1.60;;
16727;SDS011;8482;54.396;18.590;2022-09-06T04:03:00;3.42;;;1.65;;
16727;SDS011;8482;54.396;18.590;2022-09-06T04:05:26;3.30;;;1.38;;
16727;SDS011;8482;54.396;18.590;2022-09-06T04:07:52;1.85;;;1.30;;
16727;SDS011;8482;54.396;18.590;2022-09-06T04:10:18;2.60;;;1.63;;
16727;SDS011;8482;54.396;18.590;2022-09-06T04:12:44;3.50;;;1.63;;
16727;SDS011;8482;54.396;18.590;2022-09-06T04:15:10;2.65;;;1.40;;
16727;SDS011;8482;54.396;18.590;2022-09-06T04:17:35;2.50;;;1.25;;
16727;SDS011;8482;54.396;18.590;2022-09-06T04:20:02;2.60;;;1.25;;
16727;SDS011;8482;54.396;18.590;2022-09-06T04:22:29;2.17;;;1.40;;
16727;SDS011;8482;54.396;18.590;2022-09-06T04:24:55;1.98;;;1.10;;
16727;SDS011;8482;54.396;18.590;2022-09-06T04:27:22;1.95;;;1.15;;
16727;SDS011;8482;54.396;18.590;2022-09-06T04:29:48;2.80;;;1.50;;
16727;SDS011;8482;54.396;18.590;2022-09-06T04:32:13;2.17;;;1.30;;
16727;SDS011;8482;54.396;18.590;2022-09-06T04:34:39;2.40;;;1.35;;
16727;SDS011;8482;54.396;18.590;2022-09-06T04:37:05;2.75;;;1.42;;
16727;SDS011;8482;54.396;18.590;2022-09-06T04:39:30;2.08;;;1.40;;
16727;SDS011;8482;54.396;18.590;2022-09-06T04:41:56;2.53;;;1.30;;
16727;SDS011;8482;54.396;18.590;2022-09-06T04:44:22;2.38;;;1.40;;
16727;SDS011;8482;54.396;18.590;2022-09-06T04:46:48;2.33;;;1.60;;
16727;SDS011;8482;54.396;18.590;2022-09-06T04:49:13;2.10;;;1.17;;
16727;SDS011;8482;54.396;18.590;2022-09-06T04:51:39;2.63;;;1.40;;
16727;SDS011;8482;54.396;18.590;2022-09-06T04:54:05;2.65;;;1.38;;
16727;SDS011;8482;54.396;18.590;2022-09-06T04:56:31;3.53;;;1.42;;
16727;SDS011;8482;54.396;18.590;2022-09-06T04:58:56;2.40;;;1.30;;
16727;SDS011;8482;54.396;18.590;2022-09-06T05:01:22;3.58;;;2.00;;
16727;SDS011;8482;54.396;18.590;2022-09-06T05:03:50;3.15;;;1.48;;
16727;SDS011;8482;54.396;18.590;2022-09-06T05:06:19;2.65;;;1.40;;
16727;SDS011;8482;54.396;18.590;2022-09-06T05:08:47;3.55;;;1.52;;
16727;SDS011;8482;54.396;18.590;2022-09-06T05:11:15;2.58;;;1.35;;
16727;SDS011;8482;54.396;18.590;2022-09-06T05:13:41;3.00;;;1.40;;
16727;SDS011;8482;54.396;18.590;2022-09-06T05:16:07;2.33;;;1.50;;
16727;SDS011;8482;54.396;18.590;2022-09-06T05:18:33;2.85;;;1.30;;
16727;SDS011;8482;54.396;18.590;2022-09-06T05:21:00;1.73;;;1.13;;
16727;SDS011;8482;54.396;18.590;2022-09-06T05:23:26;2.17;;;1.30;;
16727;SDS011;8482;54.396;18.590;2022-09-06T05:25:52;2.67;;;1.35;;
16727;SDS011;8482;54.396;18.590;2022-09-06T05:28:19;2.08;;;1.42;;
16727;SDS011;8482;54.396;18.590;2022-09-06T05:30:44;2.17;;;1.20;;
16727;SDS011;8482;54.396;18.590;2022-09-06T05:33:12;1.70;;;0.98;;
16727;SDS011;8482;54.396;18.590;2022-09-06T05:35:44;2.38;;;1.20;;
16727;SDS011;8482;54.396;18.590;2022-09-06T05:38:10;2.47;;;1.50;;
16727;SDS011;8482;54.396;18.590;2022-09-06T05:40:36;3.50;;;1.42;;
16727;SDS011;8482;54.396;18.590;2022-09-06T05:43:01;1.75;;;1.10;;
16727;SDS011;8482;54.396;18.590;2022-09-06T05:45:27;2.38;;;1.15;;
16727;SDS011;8482;54.396;18.590;2022-09-06T05:47:53;2.75;;;1.30;;
16727;SDS011;8482;54.396;18.590;2022-09-06T05:50:19;1.92;;;1.20;;
16727;SDS011;8482;54.396;18.590;2022-09-06T05:52:44;1.95;;;1.20;;
16727;SDS011;8482;54.396;18.590;2022-09-06T05:55:11;2.40;;;1.25;;
16727;SDS011;8482;54.396;18.590;2022-09-06T05:57:37;2.40;;;1.60;;
16727;SDS011;8482;54.396;18.590;2022-09-06T06:00:03;1.83;;;1.20;;
16727;SDS011;8482;54.396;18.590;2022-09-06T06:02:31;2.10;;;1.30;;
16727;SDS011;8482;54.396;18.590;2022-09-06T06:04:56;2.97;;;1.27;;
16727;SDS011;8482;54.396;18.590;2022-09-06T06:07:22;2.38;;;1.33;;
16727;SDS011;8482;54.396;18.590;2022-09-06T06:09:48;3.55;;;1.45;;
16727;SDS011;8482;54.396;18.590;2022-09-06T06:12:14;3.83;;;1.90;;
16727;SDS011;8482;54.396;18.590;2022-09-06T06:14:40;2.58;;;1.63;;
16727;SDS011;8482;54.396;18.590;2022-09-06T06:17:06;3.25;;;1.45;;
16727;SDS011;8482;54.396;18.590;2022-09-06T06:19:32;3.58;;;1.58;;
16727;SDS011;8482;54.396;18.590;2022-09-06T06:21:57;4.15;;;1.88;;
16727;SDS011;8482;54.396;18.590;2022-09-06T06:24:23;3.50;;;1.80;;
16727;SDS011;8482;54.396;18.590;2022-09-06T06:26:49;3.90;;;1.70;;
16727;SDS011;8482;54.396;18.590;2022-09-06T06:29:15;5.03;;;1.90;;
16727;SDS011;8482;54.396;18.590;2022-09-06T06:31:41;2.78;;;1.40;;
16727;SDS011;8482;54.396;18.590;2022-09-06T06:34:07;4.10;;;1.63;;
16727;SDS011;8482;54.396;18.590;2022-09-06T06:36:33;3.83;;;1.83;;
16727;SDS011;8482;54.396;18.590;2022-09-06T06:39:01;3.10;;;1.40;;
16727;SDS011;8482;54.396;18.590;2022-09-06T06:41:31;2.45;;;1.52;;
16727;SDS011;8482;54.396;18.590;2022-09-06T06:43:58;3.28;;;1.48;;
16727;SDS011;8482;54.396;18.590;2022-09-06T06:46:28;3.22;;;1.42;;
16727;SDS011;8482;54.396;18.590;2022-09-06T06:48:56;3.15;;;1.30;;
16727;SDS011;8482;54.396;18.590;2022-09-06T06:51:24;3.08;;;1.50;;
16727;SDS011;8482;54.396;18.590;2022-09-06T06:53:53;2.80;;;1.42;;
16727;SDS011;8482;54.396;18.590;2022-09-06T06:59:10;2.90;;;1.30;;
16727;SDS011;8482;54.396;18.590;2022-09-06T07:01:36;2.35;;;1.35;;
16727;SDS011;8482;54.396;18.590;2022-09-06T07:04:03;3.17;;;1.45;;
16727;SDS011;8482;54.396;18.590;2022-09-06T07:06:29;3.83;;;1.27;;
16727;SDS011;8482;54.396;18.590;2022-09-06T07:09:09;1.95;;;1.25;;
16727;SDS011;8482;54.396;18.590;2022-09-06T07:11:35;2.55;;;1.40;;
16727;SDS011;8482;54.396;18.590;2022-09-06T07:14:00;2.75;;;1.30;;
16727;SDS011;8482;54.396;18.590;2022-09-06T07:16:26;2.70;;;1.25;;
16727;SDS011;8482;54.396;18.590;2022-09-06T07:18:53;1.58;;;0.90;;
16727;SDS011;8482;54.396;18.590;2022-09-06T07:21:23;1.98;;;1.00;;
16727;SDS011;8482;54.396;18.590;2022-09-06T07:23:53;1.35;;;0.88;;
16727;SDS011;8482;54.396;18.590;2022-09-06T07:26:21;1.45;;;0.82;;
16727;SDS011;8482;54.396;18.590;2022-09-06T07:29:08;1.58;;;0.93;;
16727;SDS011;8482;54.396;18.590;2022-09-06T07:31:34;1.98;;;1.02;;
16727;SDS011;8482;54.396;18.590;2022-09-06T07:34:01;1.75;;;1.08;;
16727;SDS011;8482;54.396;18.590;2022-09-06T07:36:29;1.67;;;1.08;;
16727;SDS011;8482;54.396;18.590;2022-09-06T07:38:54;2.95;;;0.98;;
16727;SDS011;8482;54.396;18.590;2022-09-06T07:41:20;2.35;;;1.00;;
16727;SDS011;8482;54.396;18.590;2022-09-06T07:43:47;2.08;;;0.95;;
16727;SDS011;8482;54.396;18.590;2022-09-06T07:46:18;1.88;;;0.80;;
16727;SDS011;8482;54.396;18.590;2022-09-06T07:48:44;1.77;;;1.00;;
16727;SDS011;8482;54.396;18.590;2022-09-06T07:51:20;0.77;;;0.70;;
16727;SDS011;8482;54.396;18.590;2022-09-06T07:53:47;0.73;;;0.73;;
16727;SDS011;8482;54.396;18.590;2022-09-06T07:56:16;0.88;;;0.70;;
16727;SDS011;8482;54.396;18.590;2022-09-06T07:58:44;0.50;;;0.50;;
16727;SDS011;8482;54.396;18.590;2022-09-06T08:01:29;1.60;;;0.77;;
16727;SDS011;8482;54.396;18.590;2022-09-06T08:04:00;1.65;;;0.90;;
16727;SDS011;8482;54.396;18.590;2022-09-06T08:06:29;0.50;;;0.50;;
16727;SDS011;8482;54.396;18.590;2022-09-06T08:08:58;1.02;;;0.80;;
16727;SDS011;8482;54.396;18.590;2022-09-06T08:11:25;1.15;;;0.60;;
16727;SDS011;8482;54.396;18.590;2022-09-06T08:13:54;0.98;;;0.70;;
16727;SDS011;8482;54.396;18.590;2022-09-06T08:16:23;1.60;;;0.60;;
16727;SDS011;8482;54.396;18.590;2022-09-06T08:18:52;0.60;;;0.60;;
16727;SDS011;8482;54.396;18.590;2022-09-06T08:21:21;0.60;;;0.60;;
16727;SDS011;8482;54.396;18.590;2022-09-06T08:23:56;0.60;;;0.52;;
16727;SDS011;8482;54.396;18.590;2022-09-06T08:26:28;1.02;;;0.52;;
16727;SDS011;8482;54.396;18.590;2022-09-06T08:28:57;0.75;;;0.70;;
16727;SDS011;8482;54.396;18.590;2022-09-06T08:31:31;0.93;;;0.60;;
16727;SDS011;8482;54.396;18.590;2022-09-06T08:33:59;0.95;;;0.70;;
16727;SDS011;8482;54.396;18.590;2022-09-06T08:36:27;0.68;;;0.50;;
16727;SDS011;8482;54.396;18.590;2022-09-06T08:38:58;1.33;;;0.93;;
16727;SDS011;8482;54.396;18.590;2022-09-06T08:41:32;1.33;;;1.00;;
16727;SDS011;8482;54.396;18.590;2022-09-06T08:44:11;1.67;;;1.15;;
16727;SDS011;8482;54.396;18.590;2022-09-06T08:49:32;1.80;;;1.13;;
16727;SDS011;8482;54.396;18.590;2022-09-06T09:01:01;1.35;;;1.00;;
16727;SDS011;8482;54.396;18.590;2022-09-06T09:03:36;1.52;;;0.95;;
16727;SDS011;8482;54.396;18.590;2022-09-06T09:06:05;2.05;;;1.23;;
16727;SDS011;8482;54.396;18.590;2022-09-06T09:11:28;1.92;;;1.10;;
16727;SDS011;8482;54.396;18.590;2022-09-06T09:14:04;3.13;;;1.42;;
16727;SDS011;8482;54.396;18.590;2022-09-06T09:16:51;1.73;;;0.90;;
16727;SDS011;8482;54.396;18.590;2022-09-06T09:19:20;5.13;;;1.70;;
16727;SDS011;8482;54.396;18.590;2022-09-06T09:21:46;4.32;;;1.58;;
16727;SDS011;8482;54.396;18.590;2022-09-06T09:24:13;4.63;;;1.50;;
16727;SDS011;8482;54.396;18.590;2022-09-06T09:26:53;4.45;;;1.60;;
16727;SDS011;8482;54.396;18.590;2022-09-06T09:29:29;4.40;;;1.55;;
16727;SDS011;8482;54.396;18.590;2022-09-06T09:31:55;3.35;;;1.50;;
16727;SDS011;8482;54.396;18.590;2022-09-06T09:34:34;3.05;;;1.40;;
16727;SDS011;8482;54.396;18.590;2022-09-06T09:37:19;3.72;;;1.42;;
16727;SDS011;8482;54.396;18.590;2022-09-06T09:39:53;1.95;;;0.90;;
16727;SDS011;8482;54.396;18.590;2022-09-06T09:42:28;2.60;;;1.02;;
16727;SDS011;8482;54.396;18.590;2022-09-06T09:44:59;1.73;;;0.85;;
16727;SDS011;8482;54.396;18.590;2022-09-06T09:47:42;1.83;;;1.00;;
16727;SDS011;8482;54.396;18.590;2022-09-06T09:50:20;2.45;;;1.00;;
16727;SDS011;8482;54.396;18.590;2022-09-06T09:52:52;1.10;;;0.82;;
16727;SDS011;8482;54.396;18.590;2022-09-06T09:55:25;0.75;;;0.57;;
16727;SDS011;8482;54.396;18.590;2022-09-06T09:57:53;0.63;;;0.50;;
16727;SDS011;8482;54.396;18.590;2022-09-06T10:03:10;0.50;;;0.50;;
16727;SDS011;8482;54.396;18.590;2022-09-06T10:05:41;0.40;;;0.40;;
16727;SDS011;8482;54.396;18.590;2022-09-06T10:08:20;1.38;;;0.60;;
16727;SDS011;8482;54.396;18.590;2022-09-06T10:10:49;0.60;;;0.60;;
16727;SDS011;8482;54.396;18.590;2022-09-06T10:15:58;0.70;;;0.70;;
16727;SDS011;8482;54.396;18.590;2022-09-06T10:18:28;0.73;;;0.60;;
16727;SDS011;8482;54.396;18.590;2022-09-06T10:21:00;1.33;;;0.70;;
16727;SDS011;8482;54.396;18.590;2022-09-06T10:24:01;1.50;;;0.95;;
16727;SDS011;8482;54.396;18.590;2022-09-06T10:29:21;0.77;;;0.65;;
16727;SDS011;8482;54.396;18.590;2022-09-06T10:34:37;1.85;;;0.90;;
16727;SDS011;8482;54.396;18.590;2022-09-06T10:45:14;0.82;;;0.68;;
16727;SDS011;8482;54.396;18.590;2022-09-06T10:47:14;1.25;;;0.70;;
16727;SDS011;8482;54.396;18.590;2022-09-06T10:49:41;0.85;;;0.68;;
16727;SDS011;8482;54.396;18.590;2022-09-06T10:52:27;0.95;;;0.80;;
16727;SDS011;8482;54.396;18.590;2022-09-06T10:55:02;0.82;;;0.65;;
16727;SDS011;8482;54.396;18.590;2022-09-06T10:57:34;0.68;;;0.57;;
16727;SDS011;8482;54.396;18.590;2022-09-06T11:00:09;2.00;;;0.70;;
16727;SDS011;8482;54.396;18.590;2022-09-06T11:02:44;0.80;;;0.60;;
16727;SDS011;8482;54.396;18.590;2022-09-06T11:05:42;0.95;;;0.63;;
16727;SDS011;8482;54.396;18.590;2022-09-06T11:08:24;1.50;;;0.90;;
16727;SDS011;8482;54.396;18.590;2022-09-06T11:11:10;0.52;;;0.52;;
16727;SDS011;8482;54.396;18.590;2022-09-06T11:13:52;0.68;;;0.68;;
16727;SDS011;8482;54.396;18.590;2022-09-06T11:16:20;0.65;;;0.60;;
16727;SDS011;8482;54.396;18.590;2022-09-06T11:19:05;0.70;;;0.70;;
16727;SDS011;8482;54.396;18.590;2022-09-06T11:21:52;0.60;;;0.50;;
16727;SDS011;8482;54.396;18.590;2022-09-06T11:24:46;0.85;;;0.60;;
16727;SDS011;8482;54.396;18.590;2022-09-06T11:27:35;0.73;;;0.60;;
16727;SDS011;8482;54.396;18.590;2022-09-06T11:30:05;0.95;;;0.60;;
16727;SDS011;8482;54.396;18.590;2022-09-06T11:32:39;0.55;;;0.55;;
16727;SDS011;8482;54.396;18.590;2022-09-06T11:35:21;0.70;;;0.50;;
16727;SDS011;8482;54.396;18.590;2022-09-06T11:38:07;0.63;;;0.50;;
16727;SDS011;8482;54.396;18.590;2022-09-06T11:40:41;0.40;;;0.40;;
16727;SDS011;8482;54.396;18.590;2022-09-06T11:43:20;0.50;;;0.50;;
16727;SDS011;8482;54.396;18.590;2022-09-06T11:47:18;0.50;;;0.50;;
16727;SDS011;8482;54.396;18.590;2022-09-06T11:49:28;0.43;;;0.43;;
16727;SDS011;8482;54.396;18.590;2022-09-06T11:55:19;0.40;;;0.40;;
16727;SDS011;8482;54.396;18.590;2022-09-06T11:58:01;0.40;;;0.40;;
16727;SDS011;8482;54.396;18.590;2022-09-06T12:06:16;0.45;;;0.45;;
16727;SDS011;8482;54.396;18.590;2022-09-06T12:08:47;0.50;;;0.50;;
16727;SDS011;8482;54.396;18.590;2022-09-06T12:14:06;0.90;;;0.55;;
16727;SDS011;8482;54.396;18.590;2022-09-06T12:24:58;0.50;;;0.50;;
16727;SDS011;8482;54.396;18.590;2022-09-06T12:30:08;0.50;;;0.50;;
16727;SDS011;8482;54.396;18.590;2022-09-06T12:32:53;0.50;;;0.40;;
16727;SDS011;8482;54.396;18.590;2022-09-06T12:35:21;0.50;;;0.50;;
16727;SDS011;8482;54.396;18.590;2022-09-06T12:37:56;0.50;;;0.50;;
16727;SDS011;8482;54.396;18.590;2022-09-06T12:40:26;0.50;;;0.50;;
16727;SDS011;8482;54.396;18.590;2022-09-06T12:42:56;0.70;;;0.50;;
16727;SDS011;8482;54.396;18.590;2022-09-06T12:45:23;0.77;;;0.60;;
16727;SDS011;8482;54.396;18.590;2022-09-06T12:48:01;0.50;;;0.50;;
16727;SDS011;8482;54.396;18.590;2022-09-06T12:50:36;0.50;;;0.50;;
16727;SDS011;8482;54.396;18.590;2022-09-06T12:53:16;0.57;;;0.50;;
16727;SDS011;8482;54.396;18.590;2022-09-06T12:55:48;0.47;;;0.47;;
16727;SDS011;8482;54.396;18.590;2022-09-06T12:58:31;0.60;;;0.52;;
16727;SDS011;8482;54.396;18.590;2022-09-06T13:01:02;1.25;;;0.90;;
16727;SDS011;8482;54.396;18.590;2022-09-06T13:03:44;0.90;;;0.70;;
16727;SDS011;8482;54.396;18.590;2022-09-06T13:06:40;0.57;;;0.52;;
16727;SDS011;8482;54.396;18.590;2022-09-06T13:09:10;0.57;;;0.57;;
16727;SDS011;8482;54.396;18.590;2022-09-06T13:11:47;0.65;;;0.65;;
16727;SDS011;8482;54.396;18.590;2022-09-06T13:14:20;0.52;;;0.52;;
16727;SDS011;8482;54.396;18.590;2022-09-06T13:16:51;0.93;;;0.60;;
16727;SDS011;8482;54.396;18.590;2022-09-06T13:19:37;0.60;;;0.52;;
16727;SDS011;8482;54.396;18.590;2022-09-06T13:22:07;1.08;;;0.77;;
16727;SDS011;8482;54.396;18.590;2022-09-06T13:24:40;1.40;;;0.82;;
16727;SDS011;8482;54.396;18.590;2022-09-06T13:27:32;1.25;;;1.08;;
16727;SDS011;8482;54.396;18.590;2022-09-06T13:30:07;1.55;;;0.70;;
16727;SDS011;8482;54.396;18.590;2022-09-06T13:32:35;1.38;;;0.68;;
16727;SDS011;8482;54.396;18.590;2022-09-06T13:35:10;0.65;;;0.65;;
16727;SDS011;8482;54.396;18.590;2022-09-06T13:37:48;1.20;;;0.70;;
16727;SDS011;8482;54.396;18.590;2022-09-06T13:43:11;1.00;;;0.73;;
16727;SDS011;8482;54.396;18.590;2022-09-06T13:45:37;0.60;;;0.60;;
16727;SDS011;8482;54.396;18.590;2022-09-06T13:48:04;2.53;;;0.75;;
16727;SDS011;8482;54.396;18.590;2022-09-06T13:50:30;0.95;;;0.70;;
16727;SDS011;8482;54.396;18.590;2022-09-06T13:52:57;0.47;;;0.47;;
16727;SDS011;8482;54.396;18.590;2022-09-06T13:55:24;0.70;;;0.57;;
16727;SDS011;8482;54.396;18.590;2022-09-06T13:57:55;0.60;;;0.60;;
16727;SDS011;8482;54.396;18.590;2022-09-06T14:00:21;0.63;;;0.63;;
16727;SDS011;8482;54.396;18.590;2022-09-06T14:02:47;0.47;;;0.47;;
16727;SDS011;8482;54.396;18.590;2022-09-06T14:05:14;0.73;;;0.57;;
16727;SDS011;8482;54.396;18.590;2022-09-06T14:07:42;0.75;;;0.60;;
16727;SDS011;8482;54.396;18.590;2022-09-06T14:10:09;0.75;;;0.75;;
16727;SDS011;8482;54.396;18.590;2022-09-06T14:12:35;0.50;;;0.50;;
16727;SDS011;8482;54.396;18.590;2022-09-06T14:15:03;0.55;;;0.55;;
16727;SDS011;8482;54.396;18.590;2022-09-06T14:17:29;0.65;;;0.65;;
16727;SDS011;8482;54.396;18.590;2022-09-06T14:19:57;0.40;;;0.40;;
16727;SDS011;8482;54.396;18.590;2022-09-06T14:22:22;0.65;;;0.60;;
16727;SDS011;8482;54.396;18.590;2022-09-06T14:24:48;0.73;;;0.50;;
16727;SDS011;8482;54.396;18.590;2022-09-06T14:27:14;1.00;;;0.52;;
16727;SDS011;8482;54.396;18.590;2022-09-06T14:29:41;0.70;;;0.50;;
16727;SDS011;8482;54.396;18.590;2022-09-06T14:32:07;0.50;;;0.50;;
16727;SDS011;8482;54.396;18.590;2022-09-06T14:34:33;0.73;;;0.57;;
16727;SDS011;8482;54.396;18.590;2022-09-06T14:36:59;1.15;;;0.57;;
16727;SDS011;8482;54.396;18.590;2022-09-06T14:39:25;1.30;;;0.80;;
16727;SDS011;8482;54.396;18.590;2022-09-06T14:41:51;0.60;;;0.60;;
16727;SDS011;8482;54.396;18.590;2022-09-06T14:44:17;0.73;;;0.73;;
16727;SDS011;8482;54.396;18.590;2022-09-06T14:46:43;0.75;;;0.60;;
16727;SDS011;8482;54.396;18.590;2022-09-06T14:49:11;0.75;;;0.60;;
16727;SDS011;8482;54.396;18.590;2022-09-06T14:51:37;0.68;;;0.50;;
16727;SDS011;8482;54.396;18.590;2022-09-06T14:54:09;1.13;;;0.85;;
16727;SDS011;8482;54.396;18.590;2022-09-06T14:56:38;3.72;;;1.08;;
16727;SDS011;8482;54.396;18.590;2022-09-06T14:59:06;0.90;;;0.80;;
16727;SDS011;8482;54.396;18.590;2022-09-06T15:01:33;0.80;;;0.80;;
16727;SDS011;8482;54.396;18.590;2022-09-06T15:04:01;2.38;;;0.80;;
16727;SDS011;8482;54.396;18.590;2022-09-06T15:06:32;0.82;;;0.77;;
16727;SDS011;8482;54.396;18.590;2022-09-06T15:09:01;2.00;;;0.90;;
16727;SDS011;8482;54.396;18.590;2022-09-06T15:11:29;0.82;;;0.65;;
16727;SDS011;8482;54.396;18.590;2022-09-06T15:14:05;1.23;;;0.73;;
16727;SDS011;8482;54.396;18.590;2022-09-06T15:16:37;0.77;;;0.77;;
16727;SDS011;8482;54.396;18.590;2022-09-06T15:19:03;0.85;;;0.68;;
16727;SDS011;8482;54.396;18.590;2022-09-06T15:21:29;0.50;;;0.50;;
16727;SDS011;8482;54.396;18.590;2022-09-06T15:23:56;0.60;;;0.60;;
16727;SDS011;8482;54.396;18.590;2022-09-06T15:26:23;0.50;;;0.50;;
16727;SDS011;8482;54.396;18.590;2022-09-06T15:28:49;0.90;;;0.70;;
16727;SDS011;8482;54.396;18.590;2022-09-06T15:31:16;0.75;;;0.60;;
16727;SDS011;8482;54.396;18.590;2022-09-06T15:33:43;0.90;;;0.80;;
16727;SDS011;8482;54.396;18.590;2022-09-06T15:36:09;1.38;;;0.60;;
16727;SDS011;8482;54.396;18.590;2022-09-06T15:38:38;0.68;;;0.68;;
16727;SDS011;8482;54.396;18.590;2022-09-06T15:41:22;0.80;;;0.80;;
16727;SDS011;8482;54.396;18.590;2022-09-06T15:43:57;0.85;;;0.70;;
16727;SDS011;8482;54.396;18.590;2022-09-06T15:49:29;2.38;;;1.25;;
16727;SDS011;8482;54.396;18.590;2022-09-06T15:51:56;2.47;;;1.25;;
16727;SDS011;8482;54.396;18.590;2022-09-06T15:54:25;2.67;;;1.45;;
16727;SDS011;8482;54.396;18.590;2022-09-06T15:57:11;1.40;;;1.00;;
16727;SDS011;8482;54.396;18.590;2022-09-06T15:59:40;1.05;;;0.80;;
16727;SDS011;8482;54.396;18.590;2022-09-06T16:02:06;1.27;;;0.80;;
16727;SDS011;8482;54.396;18.590;2022-09-06T16:04:33;1.33;;;0.80;;
16727;SDS011;8482;54.396;18.590;2022-09-06T16:06:59;1.50;;;0.95;;
16727;SDS011;8482;54.396;18.590;2022-09-06T16:09:24;0.90;;;0.70;;
16727;SDS011;8482;54.396;18.590;2022-09-06T16:11:50;0.60;;;0.60;;
16727;SDS011;8482;54.396;18.590;2022-09-06T16:14:16;0.70;;;0.70;;
16727;SDS011;8482;54.396;18.590;2022-09-06T16:16:44;0.60;;;0.50;;
16727;SDS011;8482;54.396;18.590;2022-09-06T16:19:18;0.50;;;0.50;;
16727;SDS011;8482;54.396;18.590;2022-09-06T16:21:44;0.50;;;0.50;;
16727;SDS011;8482;54.396;18.590;2022-09-06T16:24:11;1.60;;;0.80;;
16727;SDS011;8482;54.396;18.590;2022-09-06T16:26:39;0.60;;;0.60;;
16727;SDS011;8482;54.396;18.590;2022-09-06T16:29:08;3.15;;;1.20;;
16727;SDS011;8482;54.396;18.590;2022-09-06T16:31:36;1.08;;;0.73;;
16727;SDS011;8482;54.396;18.590;2022-09-06T16:34:02;0.70;;;0.70;;
16727;SDS011;8482;54.396;18.590;2022-09-06T16:36:28;0.80;;;0.70;;
16727;SDS011;8482;54.396;18.590;2022-09-06T16:38:54;0.85;;;0.80;;
16727;SDS011;8482;54.396;18.590;2022-09-06T16:41:25;1.10;;;0.80;;
16727;SDS011;8482;54.396;18.590;2022-09-06T16:44:10;0.50;;;0.50;;